createdAt,value
2022-09-28T00:00:18.574Z,97.25
2022-09-28T00:02:48.204Z,97.20
2022-09-28T00:05:17.195Z,97.24
2022-09-28T00:07:47.093Z,97.24
2022-09-28T00:10:17.725Z,97.29
2022-09-28T00:12:48.527Z,97.33
2022-09-28T00:15:18.932Z,97.38
2022-09-28T00:17:49.011Z,97.36
2022-09-28T00:20:19.505Z,97.43
2022-09-28T00:22:49.790Z,97.48
2022-09-28T00:25:21.124Z,97.46
2022-09-28T00:27:51.364Z,97.42
2022-09-28T00:30:23.701Z,97.37
2022-09-28T00:32:52.591Z,97.24
2022-09-28T00:35:22.368Z,97.27
2022-09-28T00:37:51.918Z,97.33
2022-09-28T00:40:21.204Z,97.37
2022-09-28T00:42:50.973Z,97.42
2022-09-28T00:45:23.619Z,97.36
2022-09-28T00:47:57.272Z,97.34
2022-09-28T00:50:32.669Z,97.39
2022-09-28T00:53:15.808Z,97.35
2022-09-28T00:55:56.797Z,97.28
2022-09-28T00:58:29.679Z,97.16
2022-09-28T01:01:00.402Z,97.06
2022-09-28T01:03:30.413Z,96.91
2022-09-28T01:06:02.055Z,96.84
2022-09-28T01:08:32.719Z,96.76
2022-09-28T01:11:04.004Z,96.77
2022-09-28T01:13:33.554Z,96.85
2022-09-28T01:16:50.261Z,96.86
2022-09-28T01:20:15.169Z,96.80
2022-09-28T01:23:13.013Z,96.77
2022-09-28T01:25:58.020Z,96.79
2022-09-28T01:28:30.073Z,96.92
2022-09-28T01:31:17.461Z,96.98
2022-09-28T01:34:06.529Z,96.91
2022-09-28T01:36:41.533Z,96.88
2022-09-28T01:39:18.410Z,96.90
2022-09-28T01:41:48.872Z,96.95
2022-09-28T01:44:18.524Z,96.96
2022-09-28T01:46:49.251Z,96.99
2022-09-28T01:49:23.114Z,96.93
2022-09-28T01:52:12.700Z,96.85
2022-09-28T01:54:47.585Z,96.93
2022-09-28T01:57:32.276Z,97.03
2022-09-28T02:00:11.736Z,96.90
2022-09-28T02:03:02.203Z,96.78
2022-09-28T02:05:39.265Z,96.67
2022-09-28T02:08:39.727Z,96.59
2022-09-28T02:11:18.452Z,96.54
2022-09-28T02:14:05.570Z,96.43
2022-09-28T02:16:44.744Z,96.47
2022-09-28T02:19:22.141Z,96.60
2022-09-28T02:22:25.206Z,96.81
2022-09-28T02:25:05.358Z,96.81
2022-09-28T02:27:49.171Z,96.65
2022-09-28T02:30:19.280Z,96.68
2022-09-28T02:32:50.894Z,96.78
2022-09-28T02:35:24.902Z,96.90
2022-09-28T02:37:55.042Z,96.98
2022-09-28T02:40:28.760Z,97.12
2022-09-28T02:43:18.809Z,97.21
2022-09-28T02:46:22.771Z,97.28
2022-09-28T02:49:20.853Z,97.29
2022-09-28T02:51:48.066Z,97.30
2022-09-28T02:54:41.091Z,97.33
2022-09-28T02:58:07.528Z,97.15
2022-09-28T03:00:43.810Z,97.04
2022-09-28T03:03:23.694Z,97.09
2022-09-28T03:06:07.184Z,97.21
2022-09-28T03:08:47.248Z,97.22
2022-09-28T03:11:30.228Z,97.17
2022-09-28T03:14:00.656Z,97.20
2022-09-28T03:16:32.605Z,97.32
2022-09-28T03:19:02.779Z,97.32
2022-09-28T03:21:32.308Z,97.21
2022-09-28T03:24:04.276Z,97.15
2022-09-28T03:26:33.749Z,97.17
2022-09-28T03:29:04.137Z,97.29
2022-09-28T03:31:34.947Z,97.26
2022-09-28T03:34:06.640Z,97.21
2022-09-28T03:36:36.819Z,97.16
2022-09-28T03:39:06.395Z,97.12
2022-09-28T03:41:36.674Z,97.15
2022-09-28T03:44:05.592Z,97.22
2022-09-28T03:46:35.729Z,97.13
2022-09-28T03:49:06.822Z,97.17
2022-09-28T03:51:36.496Z,97.26
2022-09-28T03:54:07.163Z,97.38
2022-09-28T03:56:38.063Z,97.39
2022-09-28T03:59:07.998Z,97.47
2022-09-28T04:01:39.292Z,97.51
2022-09-28T04:04:12.653Z,97.53
2022-09-28T04:06:43.028Z,97.54
2022-09-28T04:09:12.326Z,97.53
2022-09-28T04:11:59.755Z,97.49
2022-09-28T04:14:14.488Z,97.43
2022-09-28T04:16:44.550Z,97.51
2022-09-28T04:19:16.712Z,97.48
2022-09-28T04:21:51.931Z,97.46
2022-09-28T04:24:21.606Z,97.36
2022-09-28T04:26:50.974Z,97.29
2022-09-28T04:29:22.941Z,97.23
2022-09-28T04:31:55.344Z,97.18
2022-09-28T04:34:31.885Z,97.16
2022-09-28T04:36:59.822Z,97.05
2022-09-28T04:39:30.212Z,96.98
2022-09-28T04:42:00.030Z,96.89
2022-09-28T04:44:30.310Z,96.89
2022-09-28T04:47:05.347Z,96.98
2022-09-28T04:49:36.194Z,96.90
2022-09-28T04:52:07.961Z,96.82
2022-09-28T04:54:38.386Z,96.83
2022-09-28T04:57:09.830Z,96.84
2022-09-28T04:59:40.902Z,96.86
2022-09-28T05:02:13.886Z,96.73
2022-09-28T05:05:01.666Z,96.61
2022-09-28T05:07:42.333Z,96.43
2022-09-28T05:10:13.747Z,96.39
2022-09-28T05:12:44.212Z,96.35
2022-09-28T05:15:15.762Z,96.09
2022-09-28T05:17:45.620Z,95.97
2022-09-28T05:20:29.258Z,95.77
2022-09-28T05:22:59.284Z,95.53
2022-09-28T05:25:29.428Z,95.15
2022-09-28T05:28:01.501Z,94.73
2022-09-28T05:30:49.820Z,94.34
2022-09-28T05:33:44.873Z,93.84
2022-09-28T05:36:16.127Z,93.09
2022-09-28T05:38:47.902Z,92.34
2022-09-28T05:41:18.136Z,91.70
2022-09-28T05:43:48.647Z,90.95
2022-09-28T05:46:18.361Z,90.31
2022-09-28T05:48:47.694Z,89.75
2022-09-28T05:51:17.117Z,89.29
2022-09-28T05:53:46.566Z,88.71
2022-09-28T05:56:18.342Z,87.99
2022-09-28T05:58:47.902Z,87.76
2022-09-28T06:01:20.323Z,87.42
2022-09-28T06:03:51.525Z,86.97
2022-09-28T06:06:22.927Z,86.80
2022-09-28T06:08:53.124Z,86.55
2022-09-28T06:11:26.030Z,86.00
2022-09-28T06:13:57.774Z,85.60
2022-09-28T06:16:29.897Z,85.37
2022-09-28T06:18:59.486Z,85.47
2022-09-28T06:21:39.574Z,85.49
2022-09-28T06:24:10.240Z,85.19
2022-09-28T06:26:41.117Z,84.94
2022-09-28T06:29:10.070Z,84.71
2022-09-28T06:31:41.928Z,84.69
2022-09-28T06:34:12.355Z,84.58
2022-09-28T06:36:42.248Z,84.67
2022-09-28T06:39:12.715Z,84.69
2022-09-28T06:41:46.303Z,84.76
2022-09-28T06:44:18.997Z,84.59
2022-09-28T06:46:56.182Z,84.44
2022-09-28T06:49:27.464Z,84.11
2022-09-28T06:52:18.863Z,84.24
2022-09-28T06:55:10.496Z,84.42
2022-09-28T06:57:47.270Z,84.26
2022-09-28T07:00:18.723Z,83.97
2022-09-28T07:02:50.302Z,83.87
2022-09-28T07:05:23.505Z,83.58
2022-09-28T07:08:10.947Z,83.34
2022-09-28T07:10:44.965Z,83.35
2022-09-28T07:13:48.989Z,83.26
2022-09-28T07:16:03.135Z,83.16
2022-09-28T07:18:34.392Z,83.15
2022-09-28T07:21:06.198Z,82.80
2022-09-28T07:23:46.131Z,82.67
2022-09-28T07:26:25.574Z,82.58
2022-09-28T07:29:04.691Z,82.28
2022-09-28T07:31:44.201Z,82.24
2022-09-28T07:34:23.314Z,82.42
2022-09-28T07:37:02.664Z,82.24
2022-09-28T07:39:34.521Z,82.06
2022-09-28T07:42:05.433Z,81.87
2022-09-28T07:44:36.443Z,81.83
2022-09-28T07:47:06.156Z,81.76
2022-09-28T07:49:44.015Z,81.37
2022-09-28T07:52:23.325Z,80.84
2022-09-28T07:54:55.576Z,80.06
2022-09-28T07:57:26.884Z,79.75
2022-09-28T07:59:58.937Z,79.60
2022-09-28T08:02:32.139Z,79.45
2022-09-28T08:05:01.588Z,79.09
2022-09-28T08:07:32.139Z,78.66
2022-09-28T08:10:05.826Z,78.03
2022-09-28T08:12:41.249Z,78.00
2022-09-28T08:15:15.530Z,78.12
2022-09-28T08:17:58.015Z,77.74
2022-09-28T08:20:50.751Z,77.76
2022-09-28T08:23:18.167Z,77.54
2022-09-28T08:25:49.232Z,77.33
2022-09-28T08:28:18.704Z,77.19
2022-09-28T08:30:50.449Z,77.13
2022-09-28T08:33:28.750Z,76.85
2022-09-28T08:36:15.971Z,76.77
2022-09-28T08:38:46.742Z,76.88
2022-09-28T08:41:52.962Z,76.41
2022-09-28T08:44:47.676Z,75.94
2022-09-28T08:47:46.836Z,75.75
2022-09-28T08:50:26.753Z,74.87
2022-09-28T08:53:23.734Z,74.63
2022-09-28T08:56:03.427Z,74.23
2022-09-28T08:58:39.725Z,73.81
2022-09-28T09:01:11.604Z,73.19
2022-09-28T09:03:42.213Z,72.68
2022-09-28T09:06:50.242Z,72.02
2022-09-28T09:09:53.956Z,71.29
2022-09-28T09:12:39.417Z,70.89
2022-09-28T09:15:41.314Z,70.72
2022-09-28T09:18:43.987Z,70.52
2022-09-28T09:21:42.890Z,70.44
2022-09-28T09:24:27.265Z,70.98
2022-09-28T09:27:25.885Z,71.21
2022-09-28T09:30:14.498Z,71.25
2022-09-28T09:33:18.916Z,71.56
2022-09-28T09:36:38.390Z,71.71
2022-09-28T09:40:01.711Z,71.78
2022-09-28T09:43:14.735Z,71.89
2022-09-28T09:46:14.740Z,72.18
2022-09-28T09:49:20.260Z,72.30
2022-09-28T09:52:06.560Z,71.85
2022-09-28T09:55:01.759Z,71.69
2022-09-28T09:57:46.468Z,71.60
2022-09-28T10:00:21.643Z,71.75
2022-09-28T10:02:53.990Z,71.47
2022-09-28T10:05:27.466Z,71.07
2022-09-28T10:08:06.559Z,71.31
2022-09-28T10:10:39.414Z,71.37
2022-09-28T10:13:11.522Z,71.23
2022-09-28T10:15:40.999Z,71.55
2022-09-28T10:18:19.979Z,71.31
2022-09-28T10:21:16.679Z,71.52
2022-09-28T10:24:04.857Z,71.36
2022-09-28T10:26:37.616Z,71.33
2022-09-28T10:29:14.510Z,71.49
2022-09-28T10:31:52.385Z,71.60
2022-09-28T10:34:30.284Z,71.73
2022-09-28T10:37:08.833Z,71.88
2022-09-28T10:39:53.651Z,71.99
2022-09-28T10:42:26.580Z,72.31
2022-09-28T10:45:06.737Z,72.35
2022-09-28T10:47:40.398Z,72.21
2022-09-28T10:50:22.945Z,72.44
2022-09-28T10:52:54.042Z,72.15
2022-09-28T10:55:32.758Z,72.22
2022-09-28T10:58:23.831Z,72.22
2022-09-28T11:00:55.747Z,72.28
2022-09-28T11:03:27.450Z,71.94
2022-09-28T11:06:02.443Z,72.26
2022-09-28T11:08:39.962Z,72.19
2022-09-28T11:11:15.328Z,72.05
2022-09-28T11:13:55.059Z,71.73
2022-09-28T11:16:31.606Z,71.72
2022-09-28T11:19:22.955Z,71.94
2022-09-28T11:21:53.639Z,71.54
2022-09-28T11:24:26.973Z,71.52
2022-09-28T11:26:59.860Z,71.46
2022-09-28T11:29:43.708Z,71.35
2022-09-28T11:32:44.580Z,71.33
2022-09-28T11:35:32.690Z,71.19
2022-09-28T11:38:13.333Z,71.22
2022-09-28T11:41:10.282Z,71.28
2022-09-28T11:44:18.952Z,71.12
2022-09-28T11:47:33.133Z,70.93
2022-09-28T11:50:31.385Z,71.04
2022-09-28T11:53:33.541Z,71.41
2022-09-28T11:56:31.049Z,71.23
2022-09-28T11:59:07.273Z,71.42
2022-09-28T12:01:51.274Z,71.29
2022-09-28T12:04:40.538Z,71.42
2022-09-28T12:07:36.668Z,71.54
2022-09-28T12:10:24.104Z,71.55
2022-09-28T12:13:09.919Z,71.74
2022-09-28T12:16:17.148Z,71.71
2022-09-28T12:18:49.179Z,71.94
2022-09-28T12:21:38.369Z,72.20
2022-09-28T12:24:26.907Z,72.52
2022-09-28T12:27:03.939Z,72.46
2022-09-28T12:30:04.675Z,72.51
2022-09-28T12:32:45.283Z,72.38
2022-09-28T12:35:17.990Z,72.50
2022-09-28T12:38:33.547Z,72.65
2022-09-28T12:41:27.620Z,72.75
2022-09-28T12:44:17.203Z,74.75
2022-09-28T12:47:40.597Z,76.71
2022-09-28T12:50:39.544Z,78.04
2022-09-28T12:53:52.752Z,78.87
2022-09-28T12:56:39.114Z,79.62
2022-09-28T12:59:19.105Z,80.55
2022-09-28T13:02:14.490Z,80.22
2022-09-28T13:05:18.791Z,80.78
2022-09-28T13:08:26.963Z,81.01
2022-09-28T13:11:08.148Z,81.48
2022-09-28T13:14:04.990Z,81.22
2022-09-28T13:16:43.188Z,81.70
2022-09-28T13:19:32.569Z,82.34
2022-09-28T13:22:45.103Z,82.92
2022-09-28T13:25:19.494Z,83.64
2022-09-28T13:28:00.603Z,84.04
2022-09-28T13:30:31.184Z,84.38
2022-09-28T13:33:03.051Z,84.73
2022-09-28T13:35:33.037Z,84.66
2022-09-28T13:38:22.903Z,84.81
2022-09-28T13:41:10.733Z,85.46
2022-09-28T13:43:48.695Z,86.34
2022-09-28T13:47:09.602Z,86.99
2022-09-28T13:50:00.149Z,87.40
2022-09-28T13:53:06.680Z,88.20
2022-09-28T13:56:14.714Z,88.64
2022-09-28T13:59:05.799Z,88.75
2022-09-28T14:01:44.245Z,88.57
2022-09-28T14:04:25.888Z,88.35
2022-09-28T14:06:57.326Z,88.07
2022-09-28T14:09:48.191Z,87.50
2022-09-28T14:12:32.635Z,87.49
2022-09-28T14:15:02.240Z,87.14
2022-09-28T14:17:47.655Z,86.89
2022-09-28T14:20:17.734Z,86.74
2022-09-28T14:23:09.164Z,86.45
2022-09-28T14:26:13.695Z,86.31
2022-09-28T14:28:49.046Z,86.31
2022-09-28T14:31:25.690Z,86.40
2022-09-28T14:33:57.396Z,86.31
2022-09-28T14:36:49.645Z,85.87
2022-09-28T14:39:40.895Z,85.42
2022-09-28T14:42:15.682Z,84.96
2022-09-28T14:45:08.001Z,84.86
2022-09-28T14:47:49.151Z,84.64
2022-09-28T14:50:29.087Z,84.42
2022-09-28T14:53:20.086Z,84.27
2022-09-28T14:55:58.768Z,84.15
2022-09-28T14:58:29.476Z,84.12
2022-09-28T15:01:02.929Z,84.21
2022-09-28T15:03:34.052Z,84.49
2022-09-28T15:06:03.696Z,84.62
2022-09-28T15:08:38.870Z,84.84
2022-09-28T15:11:13.110Z,84.97
2022-09-28T15:13:43.360Z,85.08
2022-09-28T15:16:14.339Z,85.22
2022-09-28T15:18:58.842Z,85.59
2022-09-28T15:21:41.650Z,85.97
2022-09-28T15:24:34.524Z,86.28
2022-09-28T15:27:18.089Z,86.51
2022-09-28T15:30:04.680Z,86.85
2022-09-28T15:32:34.317Z,87.17
2022-09-28T15:35:23.832Z,87.46
2022-09-28T15:37:54.019Z,87.70
2022-09-28T15:40:33.724Z,87.94
2022-09-28T15:43:09.065Z,88.13
2022-09-28T15:45:40.314Z,88.45
2022-09-28T15:48:33.304Z,88.83
2022-09-28T15:51:09.541Z,89.01
2022-09-28T15:54:05.221Z,88.98
2022-09-28T15:56:37.167Z,89.14
2022-09-28T15:59:23.278Z,89.23
2022-09-28T16:02:10.542Z,89.39
2022-09-28T16:04:55.445Z,89.50
2022-09-28T16:07:34.387Z,89.72
2022-09-28T16:10:15.344Z,90.04
2022-09-28T16:12:48.864Z,90.25
2022-09-28T16:15:25.737Z,90.37
2022-09-28T16:18:02.289Z,90.36
2022-09-28T16:20:39.233Z,90.40
2022-09-28T16:23:27.486Z,90.42
2022-09-28T16:26:11.504Z,90.47
2022-09-28T16:28:48.161Z,90.49
2022-09-28T16:31:27.744Z,90.55
2022-09-28T16:34:02.011Z,90.51
2022-09-28T16:36:43.361Z,90.53
2022-09-28T16:39:14.242Z,90.54
2022-09-28T16:41:56.171Z,90.46
2022-09-28T16:44:27.016Z,90.52
2022-09-28T16:47:00.417Z,90.50
2022-09-28T16:49:31.313Z,90.53
2022-09-28T16:52:02.144Z,90.56
2022-09-28T16:54:49.767Z,90.56
2022-09-28T16:57:19.115Z,90.56
2022-09-28T16:59:48.512Z,90.50
2022-09-28T17:02:45.303Z,90.56
2022-09-28T17:04:53.636Z,90.61
2022-09-28T17:07:23.987Z,90.66
2022-09-28T17:09:52.836Z,90.76
2022-09-28T17:12:27.080Z,90.86
2022-09-28T17:14:56.375Z,90.95
2022-09-28T17:17:29.439Z,91.07
2022-09-28T17:19:59.105Z,91.12
2022-09-28T17:22:28.392Z,91.10
2022-09-28T17:24:58.651Z,90.98
2022-09-28T17:27:28.307Z,90.84
2022-09-28T17:29:57.852Z,90.08
2022-09-28T17:32:26.962Z,89.13
2022-09-28T17:35:19.964Z,88.62
2022-09-28T17:37:26.635Z,87.94
2022-09-28T17:39:57.183Z,86.42
2022-09-28T17:42:26.787Z,84.63
2022-09-28T17:44:56.239Z,83.52
2022-09-28T17:47:25.425Z,83.23
2022-09-28T17:49:54.966Z,82.80
2022-09-28T17:52:24.040Z,82.71
2022-09-28T17:54:52.951Z,83.00
2022-09-28T17:57:22.135Z,83.22
2022-09-28T17:59:51.829Z,83.04
2022-09-28T18:02:23.619Z,83.04
2022-09-28T18:04:54.172Z,83.09
2022-09-28T18:07:24.521Z,83.11
2022-09-28T18:09:56.226Z,83.21
2022-09-28T18:12:25.563Z,83.16
2022-09-28T18:14:55.369Z,83.30
2022-09-28T18:17:24.800Z,83.21
2022-09-28T18:19:54.301Z,83.08
2022-09-28T18:22:24.754Z,83.11
2022-09-28T18:24:54.172Z,83.29
2022-09-28T18:27:24.107Z,83.40
2022-09-28T18:29:54.624Z,83.50
2022-09-28T18:32:23.873Z,83.65
2022-09-28T18:34:53.710Z,83.87
2022-09-28T18:37:23.562Z,83.67
2022-09-28T18:39:52.367Z,83.61
2022-09-28T18:42:21.638Z,83.54
2022-09-28T18:44:50.696Z,83.42
2022-09-28T18:47:20.699Z,83.44
2022-09-28T18:49:50.899Z,83.32
2022-09-28T18:52:19.837Z,83.25
2022-09-28T18:54:50.237Z,83.28
2022-09-28T18:57:19.085Z,83.45
2022-09-28T18:59:48.102Z,83.48
2022-09-28T19:02:17.798Z,83.44
2022-09-28T19:04:47.089Z,83.65
2022-09-28T19:07:16.744Z,83.78
2022-09-28T19:09:46.420Z,83.83
2022-09-28T19:12:16.478Z,83.96
2022-09-28T19:14:46.764Z,84.11
2022-09-28T19:17:17.949Z,84.29
2022-09-28T19:19:47.277Z,84.24
2022-09-28T19:22:17.622Z,84.26
2022-09-28T19:24:47.180Z,84.22
2022-09-28T19:27:18.513Z,84.36
2022-09-28T19:29:47.739Z,84.43
2022-09-28T19:32:17.813Z,84.49
2022-09-28T19:34:48.511Z,84.35
2022-09-28T19:37:18.217Z,84.40
2022-09-28T19:39:48.309Z,84.50
2022-09-28T19:42:17.114Z,84.46
2022-09-28T19:44:47.485Z,84.42
2022-09-28T19:47:19.305Z,84.45
2022-09-28T19:49:49.452Z,84.46
2022-09-28T19:52:18.995Z,84.42
2022-09-28T19:54:53.795Z,84.40
2022-09-28T19:57:25.752Z,84.32
2022-09-28T19:59:59.228Z,84.32
2022-09-28T20:02:25.918Z,84.24
2022-09-28T20:04:55.195Z,84.33
2022-09-28T20:07:23.921Z,84.45
2022-09-28T20:09:54.117Z,84.42
2022-09-28T20:12:23.908Z,84.55
2022-09-28T20:14:54.087Z,84.56
2022-09-28T20:17:23.067Z,84.55
2022-09-28T20:19:52.177Z,84.61
2022-09-28T20:22:21.017Z,84.70
2022-09-28T20:24:51.283Z,84.77
2022-09-28T20:27:26.089Z,84.79
2022-09-28T20:29:51.937Z,84.76
2022-09-28T20:32:21.625Z,84.73
2022-09-28T20:34:51.801Z,84.61
2022-09-28T20:37:23.871Z,84.66
2022-09-28T20:39:55.196Z,84.74
2022-09-28T20:42:25.150Z,84.85
2022-09-28T20:44:54.826Z,84.88
2022-09-28T20:47:24.677Z,84.78
2022-09-28T20:49:55.786Z,84.73
2022-09-28T20:52:25.603Z,84.69
2022-09-28T20:54:55.545Z,84.68
2022-09-28T20:57:25.863Z,84.82
2022-09-28T20:59:55.061Z,84.99
2022-09-28T21:02:24.864Z,85.19
2022-09-28T21:04:54.402Z,85.54
2022-09-28T21:07:24.221Z,85.62
2022-09-28T21:09:53.397Z,85.89
2022-09-28T21:12:22.426Z,86.18
2022-09-28T21:14:53.615Z,86.28
2022-09-28T21:17:24.075Z,86.35
2022-09-28T21:19:54.311Z,86.50
2022-09-28T21:22:23.969Z,86.67
2022-09-28T21:24:52.755Z,86.77
2022-09-28T21:27:21.651Z,86.88
2022-09-28T21:29:51.500Z,87.07
2022-09-28T21:32:20.660Z,87.09
2022-09-28T21:34:50.240Z,87.05
2022-09-28T21:37:20.210Z,87.11
2022-09-28T21:39:49.566Z,87.19
2022-09-28T21:42:19.445Z,87.31
2022-09-28T21:44:48.358Z,87.43
2022-09-28T21:47:18.175Z,87.45
2022-09-28T21:49:46.893Z,87.39
2022-09-28T21:52:17.667Z,87.32
2022-09-28T21:54:46.519Z,87.40
2022-09-28T21:57:17.552Z,87.57
2022-09-28T21:59:48.991Z,87.70
2022-09-28T22:02:21.512Z,87.70
2022-09-28T22:04:51.424Z,87.77
2022-09-28T22:07:21.835Z,87.96
2022-09-28T22:09:53.697Z,88.13
2022-09-28T22:12:23.878Z,88.12
2022-09-28T22:14:54.499Z,88.08
2022-09-28T22:17:24.347Z,88.18
2022-09-28T22:19:53.611Z,88.45
2022-09-28T22:22:26.158Z,88.66
2022-09-28T22:24:54.706Z,88.71
2022-09-28T22:27:24.400Z,88.84
2022-09-28T22:29:54.153Z,88.89
2022-09-28T22:32:27.227Z,88.91
2022-09-28T22:34:58.163Z,89.02
2022-09-28T22:37:27.799Z,89.19
2022-09-28T22:39:57.399Z,89.09
2022-09-28T22:42:27.094Z,89.14
2022-09-28T22:44:56.271Z,89.20
2022-09-28T22:47:26.407Z,89.16
2022-09-28T22:49:56.553Z,89.05
2022-09-28T22:52:26.744Z,88.96
2022-09-28T22:54:55.874Z,88.79
2022-09-28T22:57:25.819Z,88.90
2022-09-28T22:59:55.440Z,88.98
2022-09-28T23:02:25.142Z,89.08
2022-09-28T23:04:54.172Z,89.09
2022-09-28T23:07:23.263Z,88.93
2022-09-28T23:09:53.737Z,88.81
2022-09-28T23:12:23.382Z,88.80
2022-09-28T23:14:53.006Z,88.97
2022-09-28T23:17:22.696Z,88.99
2022-09-28T23:19:53.164Z,89.06
2022-09-28T23:22:22.553Z,89.06
2022-09-28T23:24:52.192Z,89.27
2022-09-28T23:27:22.473Z,89.47
2022-09-28T23:29:53.659Z,89.57
2022-09-28T23:32:23.377Z,89.57
2022-09-28T23:34:53.630Z,89.57
2022-09-28T23:37:23.036Z,89.39
2022-09-28T23:39:53.547Z,89.14
2022-09-28T23:42:23.590Z,88.98
2022-09-28T23:44:54.401Z,89.16
2022-09-28T23:47:23.590Z,89.35
2022-09-28T23:49:53.146Z,89.45
2022-09-28T23:52:22.967Z,89.61
2022-09-28T23:54:52.762Z,89.76
2022-09-28T23:57:22.409Z,89.82
2022-09-28T23:59:52.257Z,89.93
